sensor_id;sensor_type;location;lat;lon;timestamp;P1;durP1;ratioP1;P2;durP2;ratioP2
8714;SDS011;4394;51.208;8.904;2022-07-22T00:02:04;0.70;;;0.70;;
8714;SDS011;4394;51.208;8.904;2022-07-22T00:04:52;0.50;;;0.50;;
8714;SDS011;4394;51.208;8.904;2022-07-22T00:07:42;1.53;;;0.60;;
8714;SDS011;4394;51.208;8.904;2022-07-22T00:10:30;0.50;;;0.50;;
8714;SDS011;4394;51.208;8.904;2022-07-22T00:13:18;0.50;;;0.43;;
8714;SDS011;4394;51.208;8.904;2022-07-22T00:16:07;0.60;;;0.60;;
8714;SDS011;4394;51.208;8.904;2022-07-22T00:18:56;0.50;;;0.50;;
8714;SDS011;4394;51.208;8.904;2022-07-22T00:21:45;0.90;;;0.60;;
8714;SDS011;4394;51.208;8.904;2022-07-22T00:24:33;0.50;;;0.50;;
8714;SDS011;4394;51.208;8.904;2022-07-22T00:27:21;0.50;;;0.37;;
8714;SDS011;4394;51.208;8.904;2022-07-22T00:30:10;0.60;;;0.40;;
8714;SDS011;4394;51.208;8.904;2022-07-22T00:32:58;0.57;;;0.37;;
8714;SDS011;4394;51.208;8.904;2022-07-22T00:35:48;4.03;;;2.00;;
8714;SDS011;4394;51.208;8.904;2022-07-22T00:38:37;0.80;;;0.50;;
8714;SDS011;4394;51.208;8.904;2022-07-22T00:41:26;0.40;;;0.40;;
8714;SDS011;4394;51.208;8.904;2022-07-22T00:44:15;0.30;;;0.30;;
8714;SDS011;4394;51.208;8.904;2022-07-22T00:47:04;0.70;;;0.30;;
8714;SDS011;4394;51.208;8.904;2022-07-22T00:49:52;0.83;;;0.20;;
8714;SDS011;4394;51.208;8.904;2022-07-22T00:52:42;0.50;;;0.30;;
8714;SDS011;4394;51.208;8.904;2022-07-22T00:55:32;0.30;;;0.30;;
8714;SDS011;4394;51.208;8.904;2022-07-22T00:58:21;0.40;;;0.33;;
8714;SDS011;4394;51.208;8.904;2022-07-22T01:01:09;0.60;;;0.30;;
8714;SDS011;4394;51.208;8.904;2022-07-22T01:03:58;0.40;;;0.20;;
8714;SDS011;4394;51.208;8.904;2022-07-22T01:06:47;0.33;;;0.33;;
8714;SDS011;4394;51.208;8.904;2022-07-22T01:09:36;0.30;;;0.30;;
8714;SDS011;4394;51.208;8.904;2022-07-22T01:12:25;0.30;;;0.30;;
8714;SDS011;4394;51.208;8.904;2022-07-22T01:15:13;0.30;;;0.30;;
8714;SDS011;4394;51.208;8.904;2022-07-22T01:18:02;0.30;;;0.30;;
8714;SDS011;4394;51.208;8.904;2022-07-22T01:20:52;0.40;;;0.30;;
8714;SDS011;4394;51.208;8.904;2022-07-22T01:23:41;0.20;;;0.20;;
8714;SDS011;4394;51.208;8.904;2022-07-22T01:26:30;1.60;;;0.40;;
8714;SDS011;4394;51.208;8.904;2022-07-22T01:29:19;0.70;;;0.30;;
8714;SDS011;4394;51.208;8.904;2022-07-22T01:32:08;1.03;;;0.50;;
8714;SDS011;4394;51.208;8.904;2022-07-22T01:34:56;0.40;;;0.33;;
8714;SDS011;4394;51.208;8.904;2022-07-22T01:37:46;0.93;;;0.40;;
8714;SDS011;4394;51.208;8.904;2022-07-22T01:40:35;2.00;;;0.70;;
8714;SDS011;4394;51.208;8.904;2022-07-22T01:43:24;0.47;;;0.47;;
8714;SDS011;4394;51.208;8.904;2022-07-22T01:46:13;0.30;;;0.30;;
8714;SDS011;4394;51.208;8.904;2022-07-22T01:49:03;2.93;;;1.23;;
8714;SDS011;4394;51.208;8.904;2022-07-22T01:51:52;1.30;;;1.20;;
8714;SDS011;4394;51.208;8.904;2022-07-22T01:54:41;1.70;;;1.60;;
8714;SDS011;4394;51.208;8.904;2022-07-22T01:57:30;1.70;;;1.60;;
8714;SDS011;4394;51.208;8.904;2022-07-22T02:00:18;2.53;;;2.00;;
8714;SDS011;4394;51.208;8.904;2022-07-22T02:03:07;2.30;;;2.10;;
8714;SDS011;4394;51.208;8.904;2022-07-22T02:05:56;3.00;;;2.70;;
8714;SDS011;4394;51.208;8.904;2022-07-22T02:08:45;2.97;;;2.67;;
8714;SDS011;4394;51.208;8.904;2022-07-22T02:11:35;3.10;;;2.80;;
8714;SDS011;4394;51.208;8.904;2022-07-22T02:14:23;3.57;;;3.20;;
8714;SDS011;4394;51.208;8.904;2022-07-22T02:17:11;3.20;;;2.90;;
8714;SDS011;4394;51.208;8.904;2022-07-22T02:20:00;2.90;;;2.70;;
8714;SDS011;4394;51.208;8.904;2022-07-22T02:22:49;3.00;;;2.70;;
8714;SDS011;4394;51.208;8.904;2022-07-22T02:25:37;2.83;;;2.53;;
8714;SDS011;4394;51.208;8.904;2022-07-22T02:28:28;3.20;;;2.90;;
8714;SDS011;4394;51.208;8.904;2022-07-22T02:31:17;3.17;;;2.80;;
8714;SDS011;4394;51.208;8.904;2022-07-22T02:34:07;2.83;;;2.53;;
8714;SDS011;4394;51.208;8.904;2022-07-22T02:36:55;3.40;;;3.10;;
8714;SDS011;4394;51.208;8.904;2022-07-22T02:39:43;4.57;;;3.77;;
8714;SDS011;4394;51.208;8.904;2022-07-22T02:42:31;5.03;;;4.17;;
8714;SDS011;4394;51.208;8.904;2022-07-22T02:45:21;4.40;;;4.00;;
8714;SDS011;4394;51.208;8.904;2022-07-22T02:48:10;4.30;;;3.87;;
8714;SDS011;4394;51.208;8.904;2022-07-22T02:50:58;4.83;;;4.07;;
8714;SDS011;4394;51.208;8.904;2022-07-22T02:53:46;4.23;;;3.73;;
8714;SDS011;4394;51.208;8.904;2022-07-22T02:56:35;3.90;;;3.60;;
8714;SDS011;4394;51.208;8.904;2022-07-22T02:59:23;4.00;;;3.60;;
8714;SDS011;4394;51.208;8.904;2022-07-22T03:02:12;3.80;;;3.30;;
8714;SDS011;4394;51.208;8.904;2022-07-22T03:05:00;3.73;;;3.40;;
8714;SDS011;4394;51.208;8.904;2022-07-22T03:07:49;4.00;;;3.53;;
8714;SDS011;4394;51.208;8.904;2022-07-22T03:10:37;4.67;;;3.63;;
8714;SDS011;4394;51.208;8.904;2022-07-22T03:13:25;4.10;;;3.60;;
8714;SDS011;4394;51.208;8.904;2022-07-22T03:16:13;4.20;;;3.70;;
8714;SDS011;4394;51.208;8.904;2022-07-22T03:19:04;3.73;;;3.43;;
8714;SDS011;4394;51.208;8.904;2022-07-22T03:21:52;4.30;;;3.20;;
8714;SDS011;4394;51.208;8.904;2022-07-22T03:24:41;3.87;;;3.47;;
8714;SDS011;4394;51.208;8.904;2022-07-22T03:27:29;4.57;;;3.40;;
8714;SDS011;4394;51.208;8.904;2022-07-22T03:30:17;3.30;;;3.00;;
8714;SDS011;4394;51.208;8.904;2022-07-22T03:33:05;3.67;;;3.27;;
8714;SDS011;4394;51.208;8.904;2022-07-22T03:35:55;3.70;;;2.97;;
8714;SDS011;4394;51.208;8.904;2022-07-22T03:38:43;3.43;;;3.13;;
8714;SDS011;4394;51.208;8.904;2022-07-22T03:41:32;3.00;;;2.70;;
8714;SDS011;4394;51.208;8.904;2022-07-22T03:44:20;3.20;;;2.90;;
8714;SDS011;4394;51.208;8.904;2022-07-22T03:47:08;3.13;;;2.70;;
8714;SDS011;4394;51.208;8.904;2022-07-22T03:49:57;4.20;;;2.70;;
8714;SDS011;4394;51.208;8.904;2022-07-22T03:52:47;3.00;;;2.70;;
8714;SDS011;4394;51.208;8.904;2022-07-22T03:55:35;2.70;;;2.20;;
8714;SDS011;4394;51.208;8.904;2022-07-22T03:58:24;4.03;;;3.00;;
8714;SDS011;4394;51.208;8.904;2022-07-22T04:01:13;4.33;;;2.87;;
8714;SDS011;4394;51.208;8.904;2022-07-22T04:04:01;2.87;;;2.63;;
8714;SDS011;4394;51.208;8.904;2022-07-22T04:06:50;3.10;;;2.50;;
8714;SDS011;4394;51.208;8.904;2022-07-22T04:09:40;3.47;;;2.50;;
8714;SDS011;4394;51.208;8.904;2022-07-22T04:12:28;3.03;;;2.73;;
8714;SDS011;4394;51.208;8.904;2022-07-22T04:15:17;3.00;;;2.67;;
8714;SDS011;4394;51.208;8.904;2022-07-22T04:18:05;2.97;;;2.47;;
8714;SDS011;4394;51.208;8.904;2022-07-22T04:20:54;3.00;;;2.50;;
8714;SDS011;4394;51.208;8.904;2022-07-22T04:23:42;4.10;;;2.67;;
8714;SDS011;4394;51.208;8.904;2022-07-22T04:26:32;2.80;;;2.27;;
8714;SDS011;4394;51.208;8.904;2022-07-22T04:29:23;3.00;;;2.70;;
8714;SDS011;4394;51.208;8.904;2022-07-22T04:32:11;4.07;;;2.80;;
8714;SDS011;4394;51.208;8.904;2022-07-22T04:34:59;3.27;;;2.67;;
8714;SDS011;4394;51.208;8.904;2022-07-22T04:37:47;3.70;;;2.80;;
8714;SDS011;4394;51.208;8.904;2022-07-22T04:40:36;2.90;;;2.30;;
8714;SDS011;4394;51.208;8.904;2022-07-22T04:43:25;2.93;;;2.30;;
8714;SDS011;4394;51.208;8.904;2022-07-22T04:46:14;3.27;;;2.47;;
8714;SDS011;4394;51.208;8.904;2022-07-22T04:49:03;3.73;;;2.47;;
8714;SDS011;4394;51.208;8.904;2022-07-22T04:51:51;3.43;;;3.00;;
8714;SDS011;4394;51.208;8.904;2022-07-22T04:54:39;3.30;;;2.93;;
8714;SDS011;4394;51.208;8.904;2022-07-22T04:57:28;4.87;;;3.17;;
8714;SDS011;4394;51.208;8.904;2022-07-22T05:00:17;5.53;;;4.00;;
8714;SDS011;4394;51.208;8.904;2022-07-22T05:03:05;5.10;;;3.87;;
8714;SDS011;4394;51.208;8.904;2022-07-22T05:05:54;6.60;;;4.50;;
8714;SDS011;4394;51.208;8.904;2022-07-22T05:08:43;6.03;;;4.90;;
8714;SDS011;4394;51.208;8.904;2022-07-22T05:11:32;5.57;;;4.80;;
8714;SDS011;4394;51.208;8.904;2022-07-22T05:14:20;6.67;;;4.80;;
8714;SDS011;4394;51.208;8.904;2022-07-22T05:17:10;4.97;;;4.40;;
8714;SDS011;4394;51.208;8.904;2022-07-22T05:20:01;5.00;;;4.50;;
8714;SDS011;4394;51.208;8.904;2022-07-22T05:22:50;5.30;;;4.67;;
8714;SDS011;4394;51.208;8.904;2022-07-22T05:25:40;5.27;;;4.73;;
8714;SDS011;4394;51.208;8.904;2022-07-22T05:28:28;6.13;;;5.10;;
8714;SDS011;4394;51.208;8.904;2022-07-22T05:31:16;6.30;;;4.80;;
8714;SDS011;4394;51.208;8.904;2022-07-22T05:34:05;5.20;;;4.60;;
8714;SDS011;4394;51.208;8.904;2022-07-22T05:36:54;6.37;;;4.97;;
8714;SDS011;4394;51.208;8.904;2022-07-22T05:39:41;5.90;;;4.97;;
8714;SDS011;4394;51.208;8.904;2022-07-22T05:42:30;5.97;;;5.13;;
8714;SDS011;4394;51.208;8.904;2022-07-22T05:45:18;5.87;;;4.93;;
8714;SDS011;4394;51.208;8.904;2022-07-22T05:48:06;6.13;;;4.57;;
8714;SDS011;4394;51.208;8.904;2022-07-22T05:50:55;4.93;;;4.40;;
8714;SDS011;4394;51.208;8.904;2022-07-22T05:53:44;5.80;;;4.80;;
8714;SDS011;4394;51.208;8.904;2022-07-22T05:56:32;5.73;;;5.03;;
8714;SDS011;4394;51.208;8.904;2022-07-22T05:59:20;6.87;;;5.33;;
8714;SDS011;4394;51.208;8.904;2022-07-22T06:02:07;6.10;;;5.50;;
8714;SDS011;4394;51.208;8.904;2022-07-22T06:04:55;5.50;;;4.70;;
8714;SDS011;4394;51.208;8.904;2022-07-22T06:07:46;6.07;;;5.10;;
8714;SDS011;4394;51.208;8.904;2022-07-22T06:10:34;6.00;;;4.67;;
8714;SDS011;4394;51.208;8.904;2022-07-22T06:13:22;6.47;;;5.13;;
8714;SDS011;4394;51.208;8.904;2022-07-22T06:16:10;7.17;;;4.63;;
8714;SDS011;4394;51.208;8.904;2022-07-22T06:18:58;5.43;;;4.43;;
8714;SDS011;4394;51.208;8.904;2022-07-22T06:21:46;7.33;;;4.50;;
8714;SDS011;4394;51.208;8.904;2022-07-22T06:24:36;5.70;;;4.40;;
8714;SDS011;4394;51.208;8.904;2022-07-22T06:27:24;4.70;;;4.20;;
8714;SDS011;4394;51.208;8.904;2022-07-22T06:30:12;6.30;;;4.40;;
8714;SDS011;4394;51.208;8.904;2022-07-22T06:33:00;5.40;;;4.53;;
8714;SDS011;4394;51.208;8.904;2022-07-22T06:35:48;5.67;;;4.60;;
8714;SDS011;4394;51.208;8.904;2022-07-22T06:38:37;5.50;;;4.87;;
8714;SDS011;4394;51.208;8.904;2022-07-22T06:41:46;5.20;;;4.20;;
8714;SDS011;4394;51.208;8.904;2022-07-22T06:44:34;6.20;;;4.83;;
8714;SDS011;4394;51.208;8.904;2022-07-22T06:47:22;4.53;;;4.13;;
8714;SDS011;4394;51.208;8.904;2022-07-22T06:50:12;5.53;;;4.10;;
8714;SDS011;4394;51.208;8.904;2022-07-22T06:53:01;4.50;;;4.00;;
8714;SDS011;4394;51.208;8.904;2022-07-22T06:55:49;4.73;;;3.83;;
8714;SDS011;4394;51.208;8.904;2022-07-22T06:58:38;4.77;;;4.07;;
8714;SDS011;4394;51.208;8.904;2022-07-22T07:01:26;4.67;;;4.07;;
8714;SDS011;4394;51.208;8.904;2022-07-22T07:04:14;4.53;;;3.93;;
8714;SDS011;4394;51.208;8.904;2022-07-22T07:07:04;5.00;;;3.60;;
8714;SDS011;4394;51.208;8.904;2022-07-22T07:09:58;5.67;;;4.40;;
8714;SDS011;4394;51.208;8.904;2022-07-22T07:12:45;4.23;;;3.73;;
8714;SDS011;4394;51.208;8.904;2022-07-22T07:15:36;4.60;;;3.90;;
8714;SDS011;4394;51.208;8.904;2022-07-22T07:18:24;4.13;;;3.73;;
8714;SDS011;4394;51.208;8.904;2022-07-22T07:21:13;4.13;;;3.70;;
8714;SDS011;4394;51.208;8.904;2022-07-22T07:24:01;6.70;;;4.10;;
8714;SDS011;4394;51.208;8.904;2022-07-22T07:26:49;4.17;;;3.73;;
8714;SDS011;4394;51.208;8.904;2022-07-22T07:29:37;4.10;;;3.70;;
8714;SDS011;4394;51.208;8.904;2022-07-22T07:32:27;4.30;;;3.90;;
8714;SDS011;4394;51.208;8.904;2022-07-22T07:35:15;4.60;;;4.20;;
8714;SDS011;4394;51.208;8.904;2022-07-22T07:38:03;5.67;;;3.90;;
8714;SDS011;4394;51.208;8.904;2022-07-22T07:40:51;4.67;;;3.70;;
8714;SDS011;4394;51.208;8.904;2022-07-22T07:43:39;4.47;;;4.07;;
8714;SDS011;4394;51.208;8.904;2022-07-22T07:46:27;5.00;;;4.07;;
8714;SDS011;4394;51.208;8.904;2022-07-22T07:49:17;4.97;;;4.03;;
8714;SDS011;4394;51.208;8.904;2022-07-22T07:52:05;4.40;;;4.00;;
8714;SDS011;4394;51.208;8.904;2022-07-22T07:54:58;5.80;;;4.03;;
8714;SDS011;4394;51.208;8.904;2022-07-22T07:57:57;4.13;;;3.73;;
8714;SDS011;4394;51.208;8.904;2022-07-22T08:00:46;4.80;;;4.30;;
8714;SDS011;4394;51.208;8.904;2022-07-22T08:03:34;5.87;;;3.80;;
8714;SDS011;4394;51.208;8.904;2022-07-22T08:06:24;5.77;;;4.70;;
8714;SDS011;4394;51.208;8.904;2022-07-22T08:09:12;6.17;;;4.73;;
8714;SDS011;4394;51.208;8.904;2022-07-22T08:12:00;6.93;;;5.20;;
8714;SDS011;4394;51.208;8.904;2022-07-22T08:14:48;5.70;;;5.10;;
8714;SDS011;4394;51.208;8.904;2022-07-22T08:17:36;5.53;;;4.97;;
8714;SDS011;4394;51.208;8.904;2022-07-22T08:20:27;6.17;;;4.70;;
8714;SDS011;4394;51.208;8.904;2022-07-22T08:23:17;6.10;;;4.90;;
8714;SDS011;4394;51.208;8.904;2022-07-22T08:26:05;4.60;;;4.20;;
8714;SDS011;4394;51.208;8.904;2022-07-22T08:28:53;5.00;;;4.30;;
8714;SDS011;4394;51.208;8.904;2022-07-22T08:31:42;6.00;;;5.40;;
8714;SDS011;4394;51.208;8.904;2022-07-22T08:34:30;5.57;;;4.47;;
8714;SDS011;4394;51.208;8.904;2022-07-22T08:37:18;5.63;;;4.67;;
8714;SDS011;4394;51.208;8.904;2022-07-22T08:40:07;6.37;;;5.17;;
8714;SDS011;4394;51.208;8.904;2022-07-22T08:42:57;5.97;;;5.00;;
8714;SDS011;4394;51.208;8.904;2022-07-22T08:45:48;5.83;;;4.87;;
8714;SDS011;4394;51.208;8.904;2022-07-22T08:48:37;5.20;;;4.67;;
8714;SDS011;4394;51.208;8.904;2022-07-22T08:51:26;5.57;;;4.43;;
8714;SDS011;4394;51.208;8.904;2022-07-22T08:54:15;5.10;;;4.57;;
8714;SDS011;4394;51.208;8.904;2022-07-22T08:57:04;6.70;;;4.53;;
8714;SDS011;4394;51.208;8.904;2022-07-22T08:59:54;6.37;;;4.90;;
8714;SDS011;4394;51.208;8.904;2022-07-22T09:02:43;5.27;;;4.77;;
8714;SDS011;4394;51.208;8.904;2022-07-22T09:05:32;4.23;;;3.83;;
8714;SDS011;4394;51.208;8.904;2022-07-22T09:08:31;7.63;;;4.80;;
8714;SDS011;4394;51.208;8.904;2022-07-22T09:11:38;4.90;;;4.40;;
8714;SDS011;4394;51.208;8.904;2022-07-22T09:14:27;4.90;;;4.40;;
8714;SDS011;4394;51.208;8.904;2022-07-22T09:17:30;4.73;;;4.07;;
8714;SDS011;4394;51.208;8.904;2022-07-22T09:20:22;5.10;;;4.60;;
8714;SDS011;4394;51.208;8.904;2022-07-22T09:23:13;4.53;;;4.13;;
8714;SDS011;4394;51.208;8.904;2022-07-22T09:26:03;5.57;;;4.67;;
8714;SDS011;4394;51.208;8.904;2022-07-22T09:28:53;5.30;;;4.50;;
8714;SDS011;4394;51.208;8.904;2022-07-22T09:31:49;4.83;;;4.33;;
8714;SDS011;4394;51.208;8.904;2022-07-22T09:34:39;5.03;;;4.37;;
8714;SDS011;4394;51.208;8.904;2022-07-22T09:37:27;5.13;;;4.60;;
8714;SDS011;4394;51.208;8.904;2022-07-22T09:40:15;6.37;;;4.80;;
8714;SDS011;4394;51.208;8.904;2022-07-22T09:43:06;5.53;;;4.60;;
8714;SDS011;4394;51.208;8.904;2022-07-22T09:45:57;4.80;;;4.30;;
8714;SDS011;4394;51.208;8.904;2022-07-22T09:48:47;6.17;;;4.90;;
8714;SDS011;4394;51.208;8.904;2022-07-22T09:51:35;5.40;;;4.90;;
8714;SDS011;4394;51.208;8.904;2022-07-22T09:54:23;5.80;;;4.67;;
8714;SDS011;4394;51.208;8.904;2022-07-22T09:57:12;5.73;;;5.13;;
8714;SDS011;4394;51.208;8.904;2022-07-22T10:00:01;5.00;;;4.50;;
8714;SDS011;4394;51.208;8.904;2022-07-22T10:02:51;6.27;;;4.90;;
8714;SDS011;4394;51.208;8.904;2022-07-22T10:05:43;6.10;;;5.00;;
8714;SDS011;4394;51.208;8.904;2022-07-22T10:08:33;5.43;;;4.43;;
8714;SDS011;4394;51.208;8.904;2022-07-22T10:11:21;5.40;;;4.83;;
8714;SDS011;4394;51.208;8.904;2022-07-22T10:14:10;4.80;;;4.30;;
8714;SDS011;4394;51.208;8.904;2022-07-22T10:17:07;4.97;;;4.47;;
8714;SDS011;4394;51.208;8.904;2022-07-22T10:19:55;6.63;;;4.80;;
8714;SDS011;4394;51.208;8.904;2022-07-22T10:22:45;5.23;;;4.73;;
8714;SDS011;4394;51.208;8.904;2022-07-22T10:25:49;5.53;;;4.83;;
8714;SDS011;4394;51.208;8.904;2022-07-22T10:28:39;5.30;;;4.80;;
8714;SDS011;4394;51.208;8.904;2022-07-22T10:31:27;5.17;;;4.67;;
8714;SDS011;4394;51.208;8.904;2022-07-22T10:34:15;5.30;;;4.80;;
8714;SDS011;4394;51.208;8.904;2022-07-22T10:37:03;5.23;;;4.70;;
8714;SDS011;4394;51.208;8.904;2022-07-22T10:43:04;5.10;;;4.60;;
8714;SDS011;4394;51.208;8.904;2022-07-22T10:45:54;5.10;;;4.60;;
8714;SDS011;4394;51.208;8.904;2022-07-22T10:48:44;5.50;;;5.00;;
8714;SDS011;4394;51.208;8.904;2022-07-22T10:51:34;5.47;;;4.97;;
8714;SDS011;4394;51.208;8.904;2022-07-22T10:54:22;6.07;;;4.70;;
8714;SDS011;4394;51.208;8.904;2022-07-22T10:57:31;5.70;;;5.17;;
8714;SDS011;4394;51.208;8.904;2022-07-22T11:00:23;5.70;;;5.00;;
8714;SDS011;4394;51.208;8.904;2022-07-22T11:03:12;5.33;;;4.83;;
8714;SDS011;4394;51.208;8.904;2022-07-22T11:06:08;6.60;;;5.10;;
8714;SDS011;4394;51.208;8.904;2022-07-22T11:09:02;4.70;;;4.20;;
8714;SDS011;4394;51.208;8.904;2022-07-22T11:11:52;4.87;;;4.37;;
8714;SDS011;4394;51.208;8.904;2022-07-22T11:14:42;5.07;;;4.57;;
8714;SDS011;4394;51.208;8.904;2022-07-22T11:17:30;5.20;;;4.70;;
8714;SDS011;4394;51.208;8.904;2022-07-22T11:20:20;6.33;;;4.97;;
8714;SDS011;4394;51.208;8.904;2022-07-22T11:26:42;5.40;;;4.47;;
8714;SDS011;4394;51.208;8.904;2022-07-22T11:29:32;5.10;;;4.60;;
8714;SDS011;4394;51.208;8.904;2022-07-22T11:32:24;6.77;;;5.00;;
8714;SDS011;4394;51.208;8.904;2022-07-22T11:35:15;5.33;;;4.83;;
8714;SDS011;4394;51.208;8.904;2022-07-22T11:38:03;5.10;;;4.70;;
8714;SDS011;4394;51.208;8.904;2022-07-22T11:40:55;5.93;;;5.33;;
8714;SDS011;4394;51.208;8.904;2022-07-22T11:43:48;6.60;;;5.57;;
8714;SDS011;4394;51.208;8.904;2022-07-22T11:46:38;5.63;;;5.00;;
8714;SDS011;4394;51.208;8.904;2022-07-22T11:49:30;6.17;;;5.13;;
8714;SDS011;4394;51.208;8.904;2022-07-22T11:52:19;5.83;;;5.13;;
8714;SDS011;4394;51.208;8.904;2022-07-22T11:55:14;5.33;;;4.83;;
8714;SDS011;4394;51.208;8.904;2022-07-22T11:58:02;5.13;;;4.73;;
8714;SDS011;4394;51.208;8.904;2022-07-22T12:00:53;5.53;;;4.80;;
8714;SDS011;4394;51.208;8.904;2022-07-22T12:03:41;4.90;;;4.40;;
8714;SDS011;4394;51.208;8.904;2022-07-22T12:06:35;5.97;;;5.43;;
8714;SDS011;4394;51.208;8.904;2022-07-22T12:09:28;6.03;;;5.53;;
8714;SDS011;4394;51.208;8.904;2022-07-22T12:12:20;6.00;;;4.93;;
8714;SDS011;4394;51.208;8.904;2022-07-22T12:15:26;5.50;;;5.00;;
8714;SDS011;4394;51.208;8.904;2022-07-22T12:18:31;5.70;;;5.10;;
8714;SDS011;4394;51.208;8.904;2022-07-22T12:21:27;6.03;;;5.27;;
8714;SDS011;4394;51.208;8.904;2022-07-22T12:24:24;5.83;;;5.27;;
8714;SDS011;4394;51.208;8.904;2022-07-22T12:27:14;5.30;;;4.80;;
8714;SDS011;4394;51.208;8.904;2022-07-22T12:30:10;5.33;;;4.83;;
8714;SDS011;4394;51.208;8.904;2022-07-22T12:32:59;5.57;;;5.07;;
8714;SDS011;4394;51.208;8.904;2022-07-22T12:35:58;5.03;;;4.60;;
8714;SDS011;4394;51.208;8.904;2022-07-22T12:38:48;5.70;;;5.20;;
8714;SDS011;4394;51.208;8.904;2022-07-22T12:41:43;5.33;;;4.83;;
8714;SDS011;4394;51.208;8.904;2022-07-22T12:44:33;5.80;;;5.20;;
8714;SDS011;4394;51.208;8.904;2022-07-22T12:50:32;5.50;;;5.00;;
8714;SDS011;4394;51.208;8.904;2022-07-22T12:53:24;5.83;;;5.23;;
8714;SDS011;4394;51.208;8.904;2022-07-22T12:56:15;5.73;;;5.23;;
8714;SDS011;4394;51.208;8.904;2022-07-22T12:59:08;5.60;;;5.10;;
8714;SDS011;4394;51.208;8.904;2022-07-22T13:01:56;5.57;;;5.07;;
8714;SDS011;4394;51.208;8.904;2022-07-22T13:04:44;5.43;;;4.93;;
8714;SDS011;4394;51.208;8.904;2022-07-22T13:07:32;6.30;;;5.50;;
8714;SDS011;4394;51.208;8.904;2022-07-22T13:10:24;5.90;;;5.40;;
8714;SDS011;4394;51.208;8.904;2022-07-22T13:13:13;5.63;;;5.03;;
8714;SDS011;4394;51.208;8.904;2022-07-22T13:16:02;5.80;;;5.07;;
8714;SDS011;4394;51.208;8.904;2022-07-22T13:18:51;5.73;;;5.23;;
8714;SDS011;4394;51.208;8.904;2022-07-22T13:21:39;5.63;;;5.00;;
8714;SDS011;4394;51.208;8.904;2022-07-22T13:24:27;5.60;;;5.10;;
8714;SDS011;4394;51.208;8.904;2022-07-22T13:27:16;5.90;;;5.40;;
8714;SDS011;4394;51.208;8.904;2022-07-22T13:30:05;5.80;;;5.20;;
8714;SDS011;4394;51.208;8.904;2022-07-22T13:32:54;6.20;;;5.60;;
8714;SDS011;4394;51.208;8.904;2022-07-22T13:35:43;6.10;;;5.50;;
8714;SDS011;4394;51.208;8.904;2022-07-22T13:38:31;6.57;;;5.87;;
8714;SDS011;4394;51.208;8.904;2022-07-22T13:41:19;6.17;;;5.60;;
8714;SDS011;4394;51.208;8.904;2022-07-22T13:44:07;5.93;;;5.43;;
8714;SDS011;4394;51.208;8.904;2022-07-22T13:46:56;6.73;;;6.03;;
8714;SDS011;4394;51.208;8.904;2022-07-22T13:49:46;6.33;;;5.73;;
8714;SDS011;4394;51.208;8.904;2022-07-22T13:52:36;6.60;;;5.70;;
8714;SDS011;4394;51.208;8.904;2022-07-22T13:55:25;6.30;;;5.70;;
8714;SDS011;4394;51.208;8.904;2022-07-22T13:58:14;6.53;;;5.87;;
8714;SDS011;4394;51.208;8.904;2022-07-22T14:01:02;5.50;;;5.00;;
8714;SDS011;4394;51.208;8.904;2022-07-22T14:03:50;6.17;;;5.37;;
8714;SDS011;4394;51.208;8.904;2022-07-22T14:06:39;5.40;;;4.90;;
8714;SDS011;4394;51.208;8.904;2022-07-22T14:09:27;6.10;;;5.50;;
8714;SDS011;4394;51.208;8.904;2022-07-22T14:12:23;6.50;;;5.47;;
8714;SDS011;4394;51.208;8.904;2022-07-22T14:15:11;6.37;;;5.77;;
8714;SDS011;4394;51.208;8.904;2022-07-22T14:18:01;5.53;;;5.07;;
8714;SDS011;4394;51.208;8.904;2022-07-22T14:20:52;7.13;;;5.70;;
8714;SDS011;4394;51.208;8.904;2022-07-22T14:23:43;6.07;;;5.57;;
8714;SDS011;4394;51.208;8.904;2022-07-22T14:26:31;6.63;;;6.03;;
8714;SDS011;4394;51.208;8.904;2022-07-22T14:29:20;6.40;;;5.80;;
8714;SDS011;4394;51.208;8.904;2022-07-22T14:32:08;6.23;;;5.63;;
8714;SDS011;4394;51.208;8.904;2022-07-22T14:34:56;7.30;;;5.30;;
8714;SDS011;4394;51.208;8.904;2022-07-22T14:37:46;6.03;;;5.53;;
8714;SDS011;4394;51.208;8.904;2022-07-22T14:40:35;5.87;;;5.33;;
8714;SDS011;4394;51.208;8.904;2022-07-22T14:43:25;5.97;;;5.47;;
8714;SDS011;4394;51.208;8.904;2022-07-22T14:46:20;5.90;;;5.30;;
8714;SDS011;4394;51.208;8.904;2022-07-22T14:49:08;6.47;;;5.50;;
8714;SDS011;4394;51.208;8.904;2022-07-22T14:52:01;6.07;;;5.50;;
8714;SDS011;4394;51.208;8.904;2022-07-22T14:54:50;5.97;;;5.13;;
8714;SDS011;4394;51.208;8.904;2022-07-22T14:57:39;6.68;;;5.80;;
8714;SDS011;4394;51.208;8.904;2022-07-22T15:00:28;6.28;;;5.68;;
8714;SDS011;4394;51.208;8.904;2022-07-22T15:03:16;7.25;;;6.47;;
8714;SDS011;4394;51.208;8.904;2022-07-22T15:06:05;6.75;;;6.10;;
8714;SDS011;4394;51.208;8.904;2022-07-22T15:08:54;6.95;;;5.88;;
8714;SDS011;4394;51.208;8.904;2022-07-22T15:11:42;6.80;;;6.10;;
8714;SDS011;4394;51.208;8.904;2022-07-22T15:14:31;8.25;;;6.63;;
8714;SDS011;4394;51.208;8.904;2022-07-22T15:17:19;7.68;;;6.28;;
8714;SDS011;4394;51.208;8.904;2022-07-22T15:20:07;6.63;;;5.90;;
8714;SDS011;4394;51.208;8.904;2022-07-22T15:22:56;6.55;;;5.95;;
8714;SDS011;4394;51.208;8.904;2022-07-22T15:25:45;8.50;;;7.53;;
8714;SDS011;4394;51.208;8.904;2022-07-22T15:28:34;6.88;;;6.25;;
8714;SDS011;4394;51.208;8.904;2022-07-22T15:31:26;8.18;;;6.75;;
8714;SDS011;4394;51.208;8.904;2022-07-22T15:34:16;6.82;;;6.13;;
8714;SDS011;4394;51.208;8.904;2022-07-22T15:37:05;8.50;;;6.63;;
8714;SDS011;4394;51.208;8.904;2022-07-22T15:39:54;7.15;;;6.25;;
8714;SDS011;4394;51.208;8.904;2022-07-22T15:42:42;8.95;;;6.80;;
8714;SDS011;4394;51.208;8.904;2022-07-22T15:45:33;7.10;;;6.40;;
8714;SDS011;4394;51.208;8.904;2022-07-22T15:48:23;7.07;;;6.38;;
8714;SDS011;4394;51.208;8.904;2022-07-22T15:51:12;6.65;;;6.05;;
8714;SDS011;4394;51.208;8.904;2022-07-22T15:54:00;7.60;;;6.80;;
8714;SDS011;4394;51.208;8.904;2022-07-22T15:56:49;10.02;;;7.30;;
8714;SDS011;4394;51.208;8.904;2022-07-22T15:59:38;7.72;;;6.78;;
8714;SDS011;4394;51.208;8.904;2022-07-22T16:02:27;8.70;;;6.88;;
8714;SDS011;4394;51.208;8.904;2022-07-22T16:05:17;7.45;;;6.60;;
8714;SDS011;4394;51.208;8.904;2022-07-22T16:08:06;7.38;;;6.60;;
8714;SDS011;4394;51.208;8.904;2022-07-22T16:10:56;8.52;;;7.68;;
8714;SDS011;4394;51.208;8.904;2022-07-22T16:13:44;7.43;;;6.72;;
8714;SDS011;4394;51.208;8.904;2022-07-22T16:16:33;8.53;;;6.83;;
8714;SDS011;4394;51.208;8.904;2022-07-22T16:19:21;8.68;;;7.28;;
8714;SDS011;4394;51.208;8.904;2022-07-22T16:22:11;8.43;;;7.43;;
8714;SDS011;4394;51.208;8.904;2022-07-22T16:25:00;11.30;;;8.73;;
8714;SDS011;4394;51.208;8.904;2022-07-22T16:27:48;9.00;;;8.10;;
8714;SDS011;4394;51.208;8.904;2022-07-22T16:30:37;10.30;;;7.30;;
8714;SDS011;4394;51.208;8.904;2022-07-22T16:33:25;8.63;;;7.23;;
8714;SDS011;4394;51.208;8.904;2022-07-22T16:36:13;8.50;;;7.60;;
8714;SDS011;4394;51.208;8.904;2022-07-22T16:39:03;8.27;;;7.47;;
8714;SDS011;4394;51.208;8.904;2022-07-22T16:41:54;11.40;;;8.47;;
8714;SDS011;4394;51.208;8.904;2022-07-22T16:44:42;9.37;;;8.07;;
8714;SDS011;4394;51.208;8.904;2022-07-22T16:47:31;9.20;;;8.20;;
8714;SDS011;4394;51.208;8.904;2022-07-22T16:50:20;8.93;;;7.43;;
8714;SDS011;4394;51.208;8.904;2022-07-22T16:53:11;7.97;;;6.83;;
8714;SDS011;4394;51.208;8.904;2022-07-22T16:56:00;9.80;;;7.83;;
8714;SDS011;4394;51.208;8.904;2022-07-22T16:58:48;9.27;;;7.60;;
8714;SDS011;4394;51.208;8.904;2022-07-22T17:01:36;8.60;;;6.97;;
8714;SDS011;4394;51.208;8.904;2022-07-22T17:04:24;10.80;;;8.07;;
8714;SDS011;4394;51.208;8.904;2022-07-22T17:07:13;8.30;;;6.63;;
8714;SDS011;4394;51.208;8.904;2022-07-22T17:10:02;9.80;;;6.40;;
8714;SDS011;4394;51.208;8.904;2022-07-22T17:12:52;9.20;;;7.00;;
8714;SDS011;4394;51.208;8.904;2022-07-22T17:16:00;9.87;;;8.30;;
8714;SDS011;4394;51.208;8.904;2022-07-22T17:18:48;9.83;;;7.37;;
8714;SDS011;4394;51.208;8.904;2022-07-22T17:21:37;9.00;;;7.40;;
8714;SDS011;4394;51.208;8.904;2022-07-22T17:24:26;9.47;;;7.40;;
8714;SDS011;4394;51.208;8.904;2022-07-22T17:27:14;8.57;;;7.40;;
8714;SDS011;4394;51.208;8.904;2022-07-22T17:30:05;10.07;;;7.57;;
8714;SDS011;4394;51.208;8.904;2022-07-22T17:32:53;9.27;;;7.37;;
8714;SDS011;4394;51.208;8.904;2022-07-22T17:35:41;10.37;;;7.53;;
8714;SDS011;4394;51.208;8.904;2022-07-22T17:38:29;11.20;;;7.97;;
8714;SDS011;4394;51.208;8.904;2022-07-22T17:41:17;9.03;;;6.90;;
8714;SDS011;4394;51.208;8.904;2022-07-22T17:44:10;9.17;;;7.13;;